Cobden, Canada
Current Conditions -  °F | °C
As of 1:00 AM on Monday 24 Nov 2014 (Local Time) from CYWA Reporting Station
Broken Clouds Broken Clouds  
Wind Chill: 37°   Ceiling: 6700
Heat Index: 43°   Visibility: 9mi
Dew Point: 36°   Wind: 9mph
Humidity: 76%   Direction: 120°ESE
Pressure: 29.65"   Gusts: NA
Location:  45.63°N, 76.88°W
Report Text: CYWA 240600Z AUTO 12008KT 9SM FEW051 BKN067 06/02 A2965 RMKPRESFR SLP044
Loading
Personal Weather Stations






























Interactive Weather Map New forecast layout! Learn more

10-Day Weather Forecast

Advertisements
Track Severe Weather on mobile